sensor_id;sensor_type;location;lat;lon;timestamp;temperature;humidity
64858;SHT30;51335;51.148;6.950;2023-02-11T00:00:28;4.35;93.96
64858;SHT30;51335;51.148;6.950;2023-02-11T00:00:59;4.32;93.92
64858;SHT30;51335;51.148;6.950;2023-02-11T00:01:31;4.30;93.91
64858;SHT30;51335;51.148;6.950;2023-02-11T00:02:02;4.31;93.91
64858;SHT30;51335;51.148;6.950;2023-02-11T00:02:32;4.34;93.91
64858;SHT30;51335;51.148;6.950;2023-02-11T00:03:03;4.34;93.87
64858;SHT30;51335;51.148;6.950;2023-02-11T00:03:33;4.32;94.12
64858;SHT30;51335;51.148;6.950;2023-02-11T00:04:05;4.31;94.00
64858;SHT30;51335;51.148;6.950;2023-02-11T00:04:35;4.30;93.99
64858;SHT30;51335;51.148;6.950;2023-02-11T00:05:06;4.30;93.93
64858;SHT30;51335;51.148;6.950;2023-02-11T00:05:36;4.31;93.95
64858;SHT30;51335;51.148;6.950;2023-02-11T00:06:07;4.30;94.02
64858;SHT30;51335;51.148;6.950;2023-02-11T00:06:38;4.28;93.91
64858;SHT30;51335;51.148;6.950;2023-02-11T00:07:08;4.28;93.85
64858;SHT30;51335;51.148;6.950;2023-02-11T00:07:38;4.25;93.85
64858;SHT30;51335;51.148;6.950;2023-02-11T00:08:08;4.27;93.83
64858;SHT30;51335;51.148;6.950;2023-02-11T00:08:39;4.28;93.85
64858;SHT30;51335;51.148;6.950;2023-02-11T00:09:10;4.28;93.86
64858;SHT30;51335;51.148;6.950;2023-02-11T00:09:40;4.30;93.94
64858;SHT30;51335;51.148;6.950;2023-02-11T00:10:10;4.34;93.95
64858;SHT30;51335;51.148;6.950;2023-02-11T00:10:40;4.32;93.99
64858;SHT30;51335;51.148;6.950;2023-02-11T00:11:15;4.32;94.02
64858;SHT30;51335;51.148;6.950;2023-02-11T00:11:46;4.32;94.05
64858;SHT30;51335;51.148;6.950;2023-02-11T00:12:16;4.32;94.03
64858;SHT30;51335;51.148;6.950;2023-02-11T00:12:46;4.34;94.06
64858;SHT30;51335;51.148;6.950;2023-02-11T00:13:16;4.37;94.07
64858;SHT30;51335;51.148;6.950;2023-02-11T00:13:47;4.38;94.13
64858;SHT30;51335;51.148;6.950;2023-02-11T00:14:17;4.35;94.06
64858;SHT30;51335;51.148;6.950;2023-02-11T00:14:48;4.37;94.02
64858;SHT30;51335;51.148;6.950;2023-02-11T00:15:18;4.35;94.03
64858;SHT30;51335;51.148;6.950;2023-02-11T00:15:49;4.37;94.10
64858;SHT30;51335;51.148;6.950;2023-02-11T00:16:20;4.35;94.02
64858;SHT30;51335;51.148;6.950;2023-02-11T00:16:50;4.38;93.98
64858;SHT30;51335;51.148;6.950;2023-02-11T00:17:20;4.38;94.00
64858;SHT30;51335;51.148;6.950;2023-02-11T00:17:51;4.45;94.11
64858;SHT30;51335;51.148;6.950;2023-02-11T00:18:21;4.49;94.12
64858;SHT30;51335;51.148;6.950;2023-02-11T00:18:52;4.48;94.03
64858;SHT30;51335;51.148;6.950;2023-02-11T00:19:22;4.46;94.01
64858;SHT30;51335;51.148;6.950;2023-02-11T00:19:52;4.51;93.95
64858;SHT30;51335;51.148;6.950;2023-02-11T00:20:23;4.51;93.91
64858;SHT30;51335;51.148;6.950;2023-02-11T00:20:53;4.48;93.94
64858;SHT30;51335;51.148;6.950;2023-02-11T00:21:24;4.53;93.95
64858;SHT30;51335;51.148;6.950;2023-02-11T00:21:55;4.55;93.92
64858;SHT30;51335;51.148;6.950;2023-02-11T00:22:25;4.52;93.94
64858;SHT30;51335;51.148;6.950;2023-02-11T00:22:55;4.53;93.83
64858;SHT30;51335;51.148;6.950;2023-02-11T00:23:25;4.51;93.95
64858;SHT30;51335;51.148;6.950;2023-02-11T00:23:56;4.51;93.97
64858;SHT30;51335;51.148;6.950;2023-02-11T00:24:27;4.53;93.93
64858;SHT30;51335;51.148;6.950;2023-02-11T00:24:57;4.58;93.98
64858;SHT30;51335;51.148;6.950;2023-02-11T00:25:27;4.56;94.04
64858;SHT30;51335;51.148;6.950;2023-02-11T00:25:58;4.58;94.01
64858;SHT30;51335;51.148;6.950;2023-02-11T00:26:31;4.61;94.05
64858;SHT30;51335;51.148;6.950;2023-02-11T00:27:01;4.61;94.02
64858;SHT30;51335;51.148;6.950;2023-02-11T00:27:32;4.62;94.03
64858;SHT30;51335;51.148;6.950;2023-02-11T00:28:02;4.66;94.07
64858;SHT30;51335;51.148;6.950;2023-02-11T00:28:32;4.69;94.02
64858;SHT30;51335;51.148;6.950;2023-02-11T00:29:04;4.68;93.95
64858;SHT30;51335;51.148;6.950;2023-02-11T00:29:35;4.69;93.92
64858;SHT30;51335;51.148;6.950;2023-02-11T00:30:06;4.68;93.99
64858;SHT30;51335;51.148;6.950;2023-02-11T00:30:36;4.71;93.89
64858;SHT30;51335;51.148;6.950;2023-02-11T00:31:07;4.73;93.87
64858;SHT30;51335;51.148;6.950;2023-02-11T00:31:37;4.73;93.81
64858;SHT30;51335;51.148;6.950;2023-02-11T00:32:08;4.75;93.74
64858;SHT30;51335;51.148;6.950;2023-02-11T00:32:39;4.75;93.73
64858;SHT30;51335;51.148;6.950;2023-02-11T00:33:09;4.75;93.68
64858;SHT30;51335;51.148;6.950;2023-02-11T00:33:40;4.75;93.62
64858;SHT30;51335;51.148;6.950;2023-02-11T00:34:10;4.76;93.54
64858;SHT30;51335;51.148;6.950;2023-02-11T00:34:41;4.75;93.55
64858;SHT30;51335;51.148;6.950;2023-02-11T00:35:11;4.73;93.48
64858;SHT30;51335;51.148;6.950;2023-02-11T00:35:41;4.75;93.45
64858;SHT30;51335;51.148;6.950;2023-02-11T00:36:22;4.69;93.40
64858;SHT30;51335;51.148;6.950;2023-02-11T00:36:53;4.72;93.37
64858;SHT30;51335;51.148;6.950;2023-02-11T00:37:23;4.71;93.40
64858;SHT30;51335;51.148;6.950;2023-02-11T00:37:54;4.73;93.36
64858;SHT30;51335;51.148;6.950;2023-02-11T00:38:24;4.76;93.34
64858;SHT30;51335;51.148;6.950;2023-02-11T00:38:56;4.75;93.31
64858;SHT30;51335;51.148;6.950;2023-02-11T00:39:26;4.75;93.33
64858;SHT30;51335;51.148;6.950;2023-02-11T00:39:57;4.76;93.33
64858;SHT30;51335;51.148;6.950;2023-02-11T00:40:27;4.73;93.48
64858;SHT30;51335;51.148;6.950;2023-02-11T00:40:57;4.73;93.62
64858;SHT30;51335;51.148;6.950;2023-02-11T00:41:28;4.73;93.54
64858;SHT30;51335;51.148;6.950;2023-02-11T00:41:58;4.76;93.51
64858;SHT30;51335;51.148;6.950;2023-02-11T00:42:29;4.77;93.54
64858;SHT30;51335;51.148;6.950;2023-02-11T00:42:59;4.79;93.55
64858;SHT30;51335;51.148;6.950;2023-02-11T00:43:29;4.77;93.60
64858;SHT30;51335;51.148;6.950;2023-02-11T00:44:02;4.77;93.51
64858;SHT30;51335;51.148;6.950;2023-02-11T00:44:33;4.76;93.52
64858;SHT30;51335;51.148;6.950;2023-02-11T00:45:03;4.80;93.54
64858;SHT30;51335;51.148;6.950;2023-02-11T00:45:33;4.79;93.61
64858;SHT30;51335;51.148;6.950;2023-02-11T00:46:04;4.83;93.53
64858;SHT30;51335;51.148;6.950;2023-02-11T00:46:35;4.82;93.54
64858;SHT30;51335;51.148;6.950;2023-02-11T00:47:05;4.83;93.46
64858;SHT30;51335;51.148;6.950;2023-02-11T00:47:36;4.82;93.44
64858;SHT30;51335;51.148;6.950;2023-02-11T00:48:06;4.82;93.49
64858;SHT30;51335;51.148;6.950;2023-02-11T00:48:36;4.80;93.45
64858;SHT30;51335;51.148;6.950;2023-02-11T00:49:06;4.80;93.47
64858;SHT30;51335;51.148;6.950;2023-02-11T00:49:37;4.80;93.62
64858;SHT30;51335;51.148;6.950;2023-02-11T00:50:07;4.83;93.51
64858;SHT30;51335;51.148;6.950;2023-02-11T00:50:38;4.82;93.49
64858;SHT30;51335;51.148;6.950;2023-02-11T00:51:08;4.83;93.54
64858;SHT30;51335;51.148;6.950;2023-02-11T00:51:39;4.83;93.51
64858;SHT30;51335;51.148;6.950;2023-02-11T00:52:09;4.82;93.49
64858;SHT30;51335;51.148;6.950;2023-02-11T00:52:39;4.84;93.48
64858;SHT30;51335;51.148;6.950;2023-02-11T00:53:09;4.90;93.43
64858;SHT30;51335;51.148;6.950;2023-02-11T00:53:40;4.90;93.39
64858;SHT30;51335;51.148;6.950;2023-02-11T00:54:10;4.89;93.38
64858;SHT30;51335;51.148;6.950;2023-02-11T00:54:41;4.92;93.31
64858;SHT30;51335;51.148;6.950;2023-02-11T00:55:11;4.93;93.27
64858;SHT30;51335;51.148;6.950;2023-02-11T00:55:41;4.94;93.26
64858;SHT30;51335;51.148;6.950;2023-02-11T00:56:11;4.94;93.20
64858;SHT30;51335;51.148;6.950;2023-02-11T00:56:42;4.94;93.15
64858;SHT30;51335;51.148;6.950;2023-02-11T00:57:12;4.93;93.15
64858;SHT30;51335;51.148;6.950;2023-02-11T00:57:42;4.92;93.14
64858;SHT30;51335;51.148;6.950;2023-02-11T00:58:12;4.94;93.11
64858;SHT30;51335;51.148;6.950;2023-02-11T00:58:43;4.94;93.15
64858;SHT30;51335;51.148;6.950;2023-02-11T00:59:13;4.99;93.06
64858;SHT30;51335;51.148;6.950;2023-02-11T00:59:43;4.96;93.02
64858;SHT30;51335;51.148;6.950;2023-02-11T01:00:14;4.96;93.00
64858;SHT30;51335;51.148;6.950;2023-02-11T01:00:44;4.96;93.02
64858;SHT30;51335;51.148;6.950;2023-02-11T01:01:14;4.96;92.99
64858;SHT30;51335;51.148;6.950;2023-02-11T01:01:45;4.92;93.02
64858;SHT30;51335;51.148;6.950;2023-02-11T01:02:15;4.96;93.00
64858;SHT30;51335;51.148;6.950;2023-02-11T01:02:46;4.92;92.97
64858;SHT30;51335;51.148;6.950;2023-02-11T01:03:16;4.93;93.03
64858;SHT30;51335;51.148;6.950;2023-02-11T01:03:46;4.92;93.04
64858;SHT30;51335;51.148;6.950;2023-02-11T01:04:16;4.92;93.04
64858;SHT30;51335;51.148;6.950;2023-02-11T01:04:47;4.93;93.13
64858;SHT30;51335;51.148;6.950;2023-02-11T01:05:18;4.92;93.10
64858;SHT30;51335;51.148;6.950;2023-02-11T01:05:48;4.90;93.12
64858;SHT30;51335;51.148;6.950;2023-02-11T01:06:19;4.89;93.20
64858;SHT30;51335;51.148;6.950;2023-02-11T01:06:49;4.89;93.20
64858;SHT30;51335;51.148;6.950;2023-02-11T01:07:19;4.93;93.19
64858;SHT30;51335;51.148;6.950;2023-02-11T01:07:49;4.90;93.16
64858;SHT30;51335;51.148;6.950;2023-02-11T01:08:20;4.92;93.13
64858;SHT30;51335;51.148;6.950;2023-02-11T01:08:50;4.90;93.18
64858;SHT30;51335;51.148;6.950;2023-02-11T01:09:20;4.90;93.23
64858;SHT30;51335;51.148;6.950;2023-02-11T01:09:51;4.89;93.16
64858;SHT30;51335;51.148;6.950;2023-02-11T01:10:21;4.90;93.13
64858;SHT30;51335;51.148;6.950;2023-02-11T01:11:03;4.90;93.08
64858;SHT30;51335;51.148;6.950;2023-02-11T01:11:33;4.87;93.08
64858;SHT30;51335;51.148;6.950;2023-02-11T01:12:04;4.90;93.04
64858;SHT30;51335;51.148;6.950;2023-02-11T01:12:34;4.89;93.00
64858;SHT30;51335;51.148;6.950;2023-02-11T01:13:05;4.92;92.97
64858;SHT30;51335;51.148;6.950;2023-02-11T01:13:35;4.94;92.98
64858;SHT30;51335;51.148;6.950;2023-02-11T01:14:06;4.94;92.92
64858;SHT30;51335;51.148;6.950;2023-02-11T01:14:36;4.94;92.86
64858;SHT30;51335;51.148;6.950;2023-02-11T01:15:07;4.96;93.00
64858;SHT30;51335;51.148;6.950;2023-02-11T01:15:38;4.96;92.91
64858;SHT30;51335;51.148;6.950;2023-02-11T01:16:09;4.97;92.90
64858;SHT30;51335;51.148;6.950;2023-02-11T01:16:39;4.96;92.86
64858;SHT30;51335;51.148;6.950;2023-02-11T01:17:10;4.93;92.85
64858;SHT30;51335;51.148;6.950;2023-02-11T01:17:40;4.93;92.86
64858;SHT30;51335;51.148;6.950;2023-02-11T01:18:11;4.92;92.82
64858;SHT30;51335;51.148;6.950;2023-02-11T01:18:41;4.92;92.97
64858;SHT30;51335;51.148;6.950;2023-02-11T01:19:12;4.90;93.05
64858;SHT30;51335;51.148;6.950;2023-02-11T01:19:42;4.93;93.06
64858;SHT30;51335;51.148;6.950;2023-02-11T01:20:15;4.96;93.03
64858;SHT30;51335;51.148;6.950;2023-02-11T01:20:46;4.94;92.99
64858;SHT30;51335;51.148;6.950;2023-02-11T01:21:16;4.96;92.94
64858;SHT30;51335;51.148;6.950;2023-02-11T01:21:47;4.94;92.95
64858;SHT30;51335;51.148;6.950;2023-02-11T01:22:17;4.96;92.97
64858;SHT30;51335;51.148;6.950;2023-02-11T01:22:47;4.97;92.90
64858;SHT30;51335;51.148;6.950;2023-02-11T01:23:18;4.94;92.90
64858;SHT30;51335;51.148;6.950;2023-02-11T01:23:48;4.97;92.91
64858;SHT30;51335;51.148;6.950;2023-02-11T01:24:18;4.94;92.94
64858;SHT30;51335;51.148;6.950;2023-02-11T01:24:49;4.94;92.99
64858;SHT30;51335;51.148;6.950;2023-02-11T01:25:19;4.96;92.98
64858;SHT30;51335;51.148;6.950;2023-02-11T01:25:49;5.00;92.98
64858;SHT30;51335;51.148;6.950;2023-02-11T01:26:20;5.00;92.94
64858;SHT30;51335;51.148;6.950;2023-02-11T01:26:50;4.99;93.04
64858;SHT30;51335;51.148;6.950;2023-02-11T01:27:20;5.01;92.97
64858;SHT30;51335;51.148;6.950;2023-02-11T01:27:50;4.97;92.94
64858;SHT30;51335;51.148;6.950;2023-02-11T01:28:23;5.00;92.98
64858;SHT30;51335;51.148;6.950;2023-02-11T01:28:54;5.00;92.99
64858;SHT30;51335;51.148;6.950;2023-02-11T01:29:24;5.03;92.99
64858;SHT30;51335;51.148;6.950;2023-02-11T01:29:54;5.07;92.84
64858;SHT30;51335;51.148;6.950;2023-02-11T01:30:25;5.04;92.81
64858;SHT30;51335;51.148;6.950;2023-02-11T01:30:55;5.10;92.78
64858;SHT30;51335;51.148;6.950;2023-02-11T01:31:26;5.09;92.77
64858;SHT30;51335;51.148;6.950;2023-02-11T01:31:56;5.13;92.77
64858;SHT30;51335;51.148;6.950;2023-02-11T01:32:26;5.11;92.80
64858;SHT30;51335;51.148;6.950;2023-02-11T01:32:57;5.11;92.75
64858;SHT30;51335;51.148;6.950;2023-02-11T01:33:28;5.10;92.76
64858;SHT30;51335;51.148;6.950;2023-02-11T01:33:58;5.10;92.79
64858;SHT30;51335;51.148;6.950;2023-02-11T01:34:28;5.13;92.80
64858;SHT30;51335;51.148;6.950;2023-02-11T01:34:58;5.13;92.94
64858;SHT30;51335;51.148;6.950;2023-02-11T01:35:29;5.14;92.79
64858;SHT30;51335;51.148;6.950;2023-02-11T01:36:01;5.14;92.77
64858;SHT30;51335;51.148;6.950;2023-02-11T01:36:31;5.14;92.76
64858;SHT30;51335;51.148;6.950;2023-02-11T01:37:02;5.14;92.73
64858;SHT30;51335;51.148;6.950;2023-02-11T01:37:32;5.14;92.70
64858;SHT30;51335;51.148;6.950;2023-02-11T01:38:03;5.16;92.69
64858;SHT30;51335;51.148;6.950;2023-02-11T01:38:34;5.17;92.69
64858;SHT30;51335;51.148;6.950;2023-02-11T01:39:04;5.16;92.60
64858;SHT30;51335;51.148;6.950;2023-02-11T01:39:34;5.24;92.60
64858;SHT30;51335;51.148;6.950;2023-02-11T01:40:07;5.26;92.48
64858;SHT30;51335;51.148;6.950;2023-02-11T01:40:37;5.24;92.59
64858;SHT30;51335;51.148;6.950;2023-02-11T01:41:10;5.20;92.70
64858;SHT30;51335;51.148;6.950;2023-02-11T01:41:41;5.21;92.68
64858;SHT30;51335;51.148;6.950;2023-02-11T01:42:15;5.19;92.61
64858;SHT30;51335;51.148;6.950;2023-02-11T01:42:46;5.23;92.66
64858;SHT30;51335;51.148;6.950;2023-02-11T01:43:17;5.23;92.63
64858;SHT30;51335;51.148;6.950;2023-02-11T01:43:48;5.30;92.63
64858;SHT30;51335;51.148;6.950;2023-02-11T01:44:36;5.35;92.40
64858;SHT30;51335;51.148;6.950;2023-02-11T01:46:58;5.38;92.22
64858;SHT30;51335;51.148;6.950;2023-02-11T01:47:28;5.38;92.16
64858;SHT30;51335;51.148;6.950;2023-02-11T01:47:59;5.38;92.16
64858;SHT30;51335;51.148;6.950;2023-02-11T01:48:35;5.38;92.12
64858;SHT30;51335;51.148;6.950;2023-02-11T01:49:45;5.37;92.11
64858;SHT30;51335;51.148;6.950;2023-02-11T01:50:16;5.37;92.15
64858;SHT30;51335;51.148;6.950;2023-02-11T01:50:49;5.34;92.15
64858;SHT30;51335;51.148;6.950;2023-02-11T01:51:27;5.30;92.12
64858;SHT30;51335;51.148;6.950;2023-02-11T01:52:02;5.30;92.26
64858;SHT30;51335;51.148;6.950;2023-02-11T01:52:37;5.30;92.27
64858;SHT30;51335;51.148;6.950;2023-02-11T01:53:09;5.30;92.26
64858;SHT30;51335;51.148;6.950;2023-02-11T01:53:39;5.28;92.28
64858;SHT30;51335;51.148;6.950;2023-02-11T01:54:15;5.28;92.32
64858;SHT30;51335;51.148;6.950;2023-02-11T01:54:49;5.30;92.33
64858;SHT30;51335;51.148;6.950;2023-02-11T01:55:20;5.27;92.39
64858;SHT30;51335;51.148;6.950;2023-02-11T01:55:51;5.30;92.39
64858;SHT30;51335;51.148;6.950;2023-02-11T01:56:24;5.28;92.37
64858;SHT30;51335;51.148;6.950;2023-02-11T01:56:56;5.27;92.40
64858;SHT30;51335;51.148;6.950;2023-02-11T01:57:30;5.24;92.46
64858;SHT30;51335;51.148;6.950;2023-02-11T01:58:04;5.21;92.39
64858;SHT30;51335;51.148;6.950;2023-02-11T01:58:37;5.20;92.50
64858;SHT30;51335;51.148;6.950;2023-02-11T01:59:16;5.20;92.72
64858;SHT30;51335;51.148;6.950;2023-02-11T01:59:56;5.19;92.74
64858;SHT30;51335;51.148;6.950;2023-02-11T02:00:36;5.16;92.69
64858;SHT30;51335;51.148;6.950;2023-02-11T02:01:10;5.14;92.93
64858;SHT30;51335;51.148;6.950;2023-02-11T02:01:45;5.16;92.87
64858;SHT30;51335;51.148;6.950;2023-02-11T02:02:20;5.16;92.75
64858;SHT30;51335;51.148;6.950;2023-02-11T02:03:41;5.17;92.50
64858;SHT30;51335;51.148;6.950;2023-02-11T02:04:14;5.14;92.44
64858;SHT30;51335;51.148;6.950;2023-02-11T02:04:52;5.16;92.55
64858;SHT30;51335;51.148;6.950;2023-02-11T02:06:16;5.17;92.50
64858;SHT30;51335;51.148;6.950;2023-02-11T02:06:53;5.16;92.39
64858;SHT30;51335;51.148;6.950;2023-02-11T02:07:32;5.23;92.34
64858;SHT30;51335;51.148;6.950;2023-02-11T02:08:42;5.20;92.59
64858;SHT30;51335;51.148;6.950;2023-02-11T02:09:22;5.20;92.50
64858;SHT30;51335;51.148;6.950;2023-02-11T02:09:59;5.24;92.35
64858;SHT30;51335;51.148;6.950;2023-02-11T02:10:33;5.21;92.43
64858;SHT30;51335;51.148;6.950;2023-02-11T02:11:04;5.20;92.55
64858;SHT30;51335;51.148;6.950;2023-02-11T02:11:34;5.20;92.55
64858;SHT30;51335;51.148;6.950;2023-02-11T02:12:05;5.24;92.55
64858;SHT30;51335;51.148;6.950;2023-02-11T02:12:35;5.24;92.45
64858;SHT30;51335;51.148;6.950;2023-02-11T02:13:06;5.21;92.41
64858;SHT30;51335;51.148;6.950;2023-02-11T02:13:36;5.21;92.41
64858;SHT30;51335;51.148;6.950;2023-02-11T02:14:06;5.23;92.46
64858;SHT30;51335;51.148;6.950;2023-02-11T02:14:38;5.20;92.49
64858;SHT30;51335;51.148;6.950;2023-02-11T02:15:29;5.19;92.58
64858;SHT30;51335;51.148;6.950;2023-02-11T02:16:03;5.20;92.69
64858;SHT30;51335;51.148;6.950;2023-02-11T02:16:35;5.26;92.76
64858;SHT30;51335;51.148;6.950;2023-02-11T02:17:09;5.28;92.61
64858;SHT30;51335;51.148;6.950;2023-02-11T02:17:45;5.28;92.57
64858;SHT30;51335;51.148;6.950;2023-02-11T02:18:52;5.28;92.60
64858;SHT30;51335;51.148;6.950;2023-02-11T02:22:55;5.28;92.61
64858;SHT30;51335;51.148;6.950;2023-02-11T02:24:26;5.26;92.53
64858;SHT30;51335;51.148;6.950;2023-02-11T02:30:45;5.28;92.61
64858;SHT30;51335;51.148;6.950;2023-02-11T02:33:52;5.35;92.66
64858;SHT30;51335;51.148;6.950;2023-02-11T02:34:29;5.37;92.72
64858;SHT30;51335;51.148;6.950;2023-02-11T02:35:23;5.42;92.61
64858;SHT30;51335;51.148;6.950;2023-02-11T02:36:43;5.42;92.45
64858;SHT30;51335;51.148;6.950;2023-02-11T02:37:25;5.45;92.33
64858;SHT30;51335;51.148;6.950;2023-02-11T02:38:20;5.51;92.23
64858;SHT30;51335;51.148;6.950;2023-02-11T02:39:00;5.51;92.10
64858;SHT30;51335;51.148;6.950;2023-02-11T02:39:33;5.54;92.05
64858;SHT30;51335;51.148;6.950;2023-02-11T02:40:10;5.56;91.92
64858;SHT30;51335;51.148;6.950;2023-02-11T02:41:08;5.58;91.83
64858;SHT30;51335;51.148;6.950;2023-02-11T02:41:40;5.55;91.79
64858;SHT30;51335;51.148;6.950;2023-02-11T02:42:11;5.51;91.87
64858;SHT30;51335;51.148;6.950;2023-02-11T02:42:42;5.51;91.92
64858;SHT30;51335;51.148;6.950;2023-02-11T02:43:14;5.51;92.04
64858;SHT30;51335;51.148;6.950;2023-02-11T02:43:47;5.54;92.10
64858;SHT30;51335;51.148;6.950;2023-02-11T02:44:19;5.55;91.92
64858;SHT30;51335;51.148;6.950;2023-02-11T02:44:51;5.55;91.95
64858;SHT30;51335;51.148;6.950;2023-02-11T02:45:22;5.55;91.96
64858;SHT30;51335;51.148;6.950;2023-02-11T02:45:52;5.54;91.90
64858;SHT30;51335;51.148;6.950;2023-02-11T02:46:27;5.54;91.96
64858;SHT30;51335;51.148;6.950;2023-02-11T02:46:58;5.52;92.00
64858;SHT30;51335;51.148;6.950;2023-02-11T02:47:28;5.52;92.06
64858;SHT30;51335;51.148;6.950;2023-02-11T02:47:58;5.55;92.08
64858;SHT30;51335;51.148;6.950;2023-02-11T02:48:31;5.58;92.00
64858;SHT30;51335;51.148;6.950;2023-02-11T02:49:01;5.58;91.92
64858;SHT30;51335;51.148;6.950;2023-02-11T02:49:32;5.59;91.90
64858;SHT30;51335;51.148;6.950;2023-02-11T02:50:03;5.58;91.91
64858;SHT30;51335;51.148;6.950;2023-02-11T02:50:36;5.54;91.93
64858;SHT30;51335;51.148;6.950;2023-02-11T02:52:15;5.54;92.02
64858;SHT30;51335;51.148;6.950;2023-02-11T02:53:54;5.52;92.00
64858;SHT30;51335;51.148;6.950;2023-02-11T02:57:46;5.50;92.13
64858;SHT30;51335;51.148;6.950;2023-02-11T03:01:12;5.54;92.18
64858;SHT30;51335;51.148;6.950;2023-02-11T03:03:48;5.54;92.17
64858;SHT30;51335;51.148;6.950;2023-02-11T03:04:33;5.58;92.17
64858;SHT30;51335;51.148;6.950;2023-02-11T03:05:17;5.61;92.01
64858;SHT30;51335;51.148;6.950;2023-02-11T03:06:57;5.56;92.01
64858;SHT30;51335;51.148;6.950;2023-02-11T03:07:39;5.55;92.04
64858;SHT30;51335;51.148;6.950;2023-02-11T03:09:07;5.54;92.14
64858;SHT30;51335;51.148;6.950;2023-02-11T03:10:00;5.52;92.28
64858;SHT30;51335;51.148;6.950;2023-02-11T03:10:35;5.58;92.18
64858;SHT30;51335;51.148;6.950;2023-02-11T03:11:06;5.56;92.16
64858;SHT30;51335;51.148;6.950;2023-02-11T03:11:38;5.55;92.15
64858;SHT30;51335;51.148;6.950;2023-02-11T03:12:10;5.59;92.10
64858;SHT30;51335;51.148;6.950;2023-02-11T03:12:43;5.58;92.07
64858;SHT30;51335;51.148;6.950;2023-02-11T03:13:15;5.59;92.02
64858;SHT30;51335;51.148;6.950;2023-02-11T03:13:47;5.56;92.09
64858;SHT30;51335;51.148;6.950;2023-02-11T03:14:19;5.58;92.06
64858;SHT30;51335;51.148;6.950;2023-02-11T03:14:51;5.55;92.10
64858;SHT30;51335;51.148;6.950;2023-02-11T03:15:23;5.54;92.12
64858;SHT30;51335;51.148;6.950;2023-02-11T03:15:56;5.58;92.25
64858;SHT30;51335;51.148;6.950;2023-02-11T03:16:28;5.55;92.20
64858;SHT30;51335;51.148;6.950;2023-02-11T03:17:00;5.55;92.24
64858;SHT30;51335;51.148;6.950;2023-02-11T03:17:34;5.58;92.28
64858;SHT30;51335;51.148;6.950;2023-02-11T03:18:08;5.58;92.27
64858;SHT30;51335;51.148;6.950;2023-02-11T03:18:43;5.55;92.29
64858;SHT30;51335;51.148;6.950;2023-02-11T03:19:20;5.61;92.23
64858;SHT30;51335;51.148;6.950;2023-02-11T03:19:52;5.61;92.14
64858;SHT30;51335;51.148;6.950;2023-02-11T03:20:23;5.62;92.13
64858;SHT30;51335;51.148;6.950;2023-02-11T03:20:55;5.63;92.09
64858;SHT30;51335;51.148;6.950;2023-02-11T03:21:25;5.59;92.09
64858;SHT30;51335;51.148;6.950;2023-02-11T03:21:56;5.63;92.07
64858;SHT30;51335;51.148;6.950;2023-02-11T03:22:41;5.59;92.00
64858;SHT30;51335;51.148;6.950;2023-02-11T03:23:18;5.66;91.96
64858;SHT30;51335;51.148;6.950;2023-02-11T03:23:54;5.69;91.85
64858;SHT30;51335;51.148;6.950;2023-02-11T03:24:32;5.79;91.69
64858;SHT30;51335;51.148;6.950;2023-02-11T03:25:03;5.79;91.36
64858;SHT30;51335;51.148;6.950;2023-02-11T03:25:43;5.79;91.26
64858;SHT30;51335;51.148;6.950;2023-02-11T03:26:52;5.76;91.27
64858;SHT30;51335;51.148;6.950;2023-02-11T03:27:33;5.78;91.40
64858;SHT30;51335;51.148;6.950;2023-02-11T03:28:31;5.78;91.40
64858;SHT30;51335;51.148;6.950;2023-02-11T03:29:28;5.76;91.46
64858;SHT30;51335;51.148;6.950;2023-02-11T03:30:05;5.76;91.38
64858;SHT30;51335;51.148;6.950;2023-02-11T03:30:52;5.73;91.33
64858;SHT30;51335;51.148;6.950;2023-02-11T03:31:29;5.73;91.43
64858;SHT30;51335;51.148;6.950;2023-02-11T03:32:18;5.70;91.48
64858;SHT30;51335;51.148;6.950;2023-02-11T03:32:56;5.69;91.53
64858;SHT30;51335;51.148;6.950;2023-02-11T03:33:36;5.73;91.62
64858;SHT30;51335;51.148;6.950;2023-02-11T03:34:13;5.70;91.57
64858;SHT30;51335;51.148;6.950;2023-02-11T03:35:07;5.69;91.58
64858;SHT30;51335;51.148;6.950;2023-02-11T03:36:01;5.69;91.61
64858;SHT30;51335;51.148;6.950;2023-02-11T03:36:40;5.66;91.67
64858;SHT30;51335;51.148;6.950;2023-02-11T03:37:22;5.69;91.67
64858;SHT30;51335;51.148;6.950;2023-02-11T03:38:03;5.66;91.76
64858;SHT30;51335;51.148;6.950;2023-02-11T03:38:37;5.65;91.82
64858;SHT30;51335;51.148;6.950;2023-02-11T03:39:09;5.68;91.83
64858;SHT30;51335;51.148;6.950;2023-02-11T03:39:46;5.63;91.82
64858;SHT30;51335;51.148;6.950;2023-02-11T03:40:22;5.68;91.78
64858;SHT30;51335;51.148;6.950;2023-02-11T03:40:54;5.66;91.83
64858;SHT30;51335;51.148;6.950;2023-02-11T03:41:25;5.63;91.85
64858;SHT30;51335;51.148;6.950;2023-02-11T03:41:57;5.66;91.90
64858;SHT30;51335;51.148;6.950;2023-02-11T03:42:36;5.69;91.79
64858;SHT30;51335;51.148;6.950;2023-02-11T03:43:14;5.69;91.72
64858;SHT30;51335;51.148;6.950;2023-02-11T03:43:50;5.66;91.75
64858;SHT30;51335;51.148;6.950;2023-02-11T03:44:23;5.66;91.76
64858;SHT30;51335;51.148;6.950;2023-02-11T03:45:00;5.66;91.82
64858;SHT30;51335;51.148;6.950;2023-02-11T03:45:32;5.65;91.85
64858;SHT30;51335;51.148;6.950;2023-02-11T03:46:06;5.66;91.93
64858;SHT30;51335;51.148;6.950;2023-02-11T03:46:39;5.70;91.97
64858;SHT30;51335;51.148;6.950;2023-02-11T03:47:12;5.70;91.78
64858;SHT30;51335;51.148;6.950;2023-02-11T03:47:48;5.70;91.77
64858;SHT30;51335;51.148;6.950;2023-02-11T03:48:26;5.69;91.77
64858;SHT30;51335;51.148;6.950;2023-02-11T03:49:02;5.68;91.84
64858;SHT30;51335;51.148;6.950;2023-02-11T03:49:34;5.69;91.83
64858;SHT30;51335;51.148;6.950;2023-02-11T03:50:07;5.69;91.86
64858;SHT30;51335;51.148;6.950;2023-02-11T03:50:39;5.72;91.84
64858;SHT30;51335;51.148;6.950;2023-02-11T03:51:11;5.70;91.80
64858;SHT30;51335;51.148;6.950;2023-02-11T03:51:42;5.70;91.78
64858;SHT30;51335;51.148;6.950;2023-02-11T03:52:14;5.72;91.87
64858;SHT30;51335;51.148;6.950;2023-02-11T03:52:47;5.70;91.80
64858;SHT30;51335;51.148;6.950;2023-02-11T03:53:19;5.70;91.88
64858;SHT30;51335;51.148;6.950;2023-02-11T03:53:54;5.69;91.90
64858;SHT30;51335;51.148;6.950;2023-02-11T03:54:29;5.68;91.92
64858;SHT30;51335;51.148;6.950;2023-02-11T03:55:02;5.72;91.99
64858;SHT30;51335;51.148;6.950;2023-02-11T03:55:36;5.75;91.86
64858;SHT30;51335;51.148;6.950;2023-02-11T03:56:12;5.70;91.76
64858;SHT30;51335;51.148;6.950;2023-02-11T03:56:56;5.70;91.82
64858;SHT30;51335;51.148;6.950;2023-02-11T03:57:26;5.69;91.81
64858;SHT30;51335;51.148;6.950;2023-02-11T03:57:57;5.70;91.87
64858;SHT30;51335;51.148;6.950;2023-02-11T03:58:27;5.66;91.90
64858;SHT30;51335;51.148;6.950;2023-02-11T03:58:58;5.73;91.96
64858;SHT30;51335;51.148;6.950;2023-02-11T03:59:28;5.72;91.87
64858;SHT30;51335;51.148;6.950;2023-02-11T03:59:59;5.78;91.81
64858;SHT30;51335;51.148;6.950;2023-02-11T04:00:35;5.85;91.64
64858;SHT30;51335;51.148;6.950;2023-02-11T04:01:06;5.85;91.44
64858;SHT30;51335;51.148;6.950;2023-02-11T04:01:36;5.85;91.39
64858;SHT30;51335;51.148;6.950;2023-02-11T04:02:06;5.80;91.34
64858;SHT30;51335;51.148;6.950;2023-02-11T04:02:37;5.80;91.43